Time;durP1;ratioP1;P1;durP2;ratioP2;P2;SDS_P1;SDS_P2;PMS_P1;PMS_P2;Temp;Humidity;BMP_temperature;BMP_pressure;BME280_temperature;BME280_humidity;BME280_pressure;Samples;Min_cycle;Max_cycle;Signal;HPM_P1;HPM_P2
2022/05/09 00:01:51;;;;;;;9.02;7.30;;;;;;;;;;4985854;28;20201;-82
2022/05/09 00:04:17;;;;;;;10.35;6.90;;;;;;;;;;4998738;28;20188;-83
2022/05/09 00:06:43;;;;;;;6.88;6.15;;;;;;;;;;4985013;28;20182;-83
2022/05/09 00:09:09;;;;;;;7.63;6.87;;;;;;;;;;4986940;28;20182;-82
2022/05/09 00:11:35;;;;;;;9.20;6.43;;;;;;;;;;4984458;28;20568;-83
2022/05/09 00:14:01;;;;;;;8.95;6.60;;;;;;;;;;4999860;28;20438;-83
2022/05/09 00:16:33;;;;;;;9.02;7.35;;;;;;;;;;5000586;28;20182;-83
2022/05/09 00:19:06;;;;;;;7.30;6.35;;;;;;;;;;4984320;28;20259;-82
2022/05/09 00:21:37;;;;;;;9.52;6.38;;;;;;;;;;5000455;28;20179;-82
2022/05/09 00:24:03;;;;;;;10.02;7.00;;;;;;;;;;5001410;28;20564;-82
2022/05/09 00:26:32;;;;;;;9.77;7.32;;;;;;;;;;4999793;28;20197;-82
2022/05/09 00:29:02;;;;;;;9.73;6.78;;;;;;;;;;5000292;28;20207;-82
2022/05/09 00:31:28;;;;;;;8.27;7.40;;;;;;;;;;4985951;28;20205;-82
2022/05/09 00:33:54;;;;;;;7.18;6.47;;;;;;;;;;5001650;28;20269;-82
2022/05/09 00:36:21;;;;;;;7.05;6.30;;;;;;;;;;5003664;28;20201;-83
2022/05/09 00:38:47;;;;;;;10.35;6.55;;;;;;;;;;4985127;28;20544;-82
2022/05/09 00:41:29;;;;;;;6.90;6.00;;;;;;;;;;5000027;28;20648;-82
2022/05/09 00:43:55;;;;;;;8.85;6.30;;;;;;;;;;5000958;28;20603;-82
2022/05/09 00:46:22;;;;;;;10.15;6.70;;;;;;;;;;4984561;28;20215;-82
2022/05/09 00:48:48;;;;;;;8.18;7.05;;;;;;;;;;4983971;28;20190;-82
2022/05/09 00:51:15;;;;;;;7.53;6.60;;;;;;;;;;5001725;28;20207;-82
2022/05/09 00:53:41;;;;;;;7.88;6.50;;;;;;;;;;5002916;28;20191;-83
2022/05/09 00:56:11;;;;;;;8.05;5.75;;;;;;;;;;5003909;28;20212;-82
2022/05/09 00:58:39;;;;;;;9.75;6.13;;;;;;;;;;4988610;28;20183;-82
2022/05/09 01:01:08;;;;;;;8.00;5.80;;;;;;;;;;5003932;28;20261;-82
2022/05/09 01:03:46;;;;;;;7.72;6.47;;;;;;;;;;4989063;28;20182;-81
2022/05/09 01:06:12;;;;;;;8.38;6.90;;;;;;;;;;4989816;28;20241;-82
2022/05/09 01:08:38;;;;;;;8.32;6.30;;;;;;;;;;5002799;28;20270;-83
2022/05/09 01:11:09;;;;;;;8.15;6.53;;;;;;;;;;5003034;28;20207;-82
2022/05/09 01:13:36;;;;;;;9.55;6.00;;;;;;;;;;5003630;28;20181;-82
2022/05/09 01:16:04;;;;;;;7.78;5.97;;;;;;;;;;4988570;28;20179;-82
2022/05/09 01:18:30;;;;;;;6.43;5.30;;;;;;;;;;5002702;28;20683;-81
2022/05/09 01:20:56;;;;;;;8.02;5.45;;;;;;;;;;5004233;28;20191;-82
2022/05/09 01:23:22;;;;;;;7.05;5.63;;;;;;;;;;5004597;28;20199;-82
2022/05/09 01:25:48;;;;;;;7.75;5.57;;;;;;;;;;4987812;28;20254;-82
2022/05/09 01:28:14;;;;;;;9.27;7.15;;;;;;;;;;5002448;28;20279;-82
2022/05/09 01:30:44;;;;;;;7.25;6.55;;;;;;;;;;4987978;28;20281;-82
2022/05/09 01:33:10;;;;;;;11.23;5.80;;;;;;;;;;5005040;28;20168;-82
2022/05/09 01:35:53;;;;;;;5.10;4.60;;;;;;;;;;5002220;28;20317;-82
2022/05/09 01:38:25;;;;;;;9.88;5.65;;;;;;;;;;5002717;28;20928;-83
2022/05/09 01:40:51;;;;;;;6.20;5.13;;;;;;;;;;4987938;28;20191;-82
2022/05/09 01:43:44;;;;;;;5.03;4.53;;;;;;;;;;5002534;28;20684;-82
2022/05/09 01:46:15;;;;;;;5.65;5.05;;;;;;;;;;4984304;28;20692;-81
2022/05/09 01:51:27;;;;;;;8.65;4.90;;;;;;;;;;5006641;28;20273;-82
2022/05/09 01:53:53;;;;;;;6.32;5.15;;;;;;;;;;5002076;28;20183;-82
2022/05/09 01:56:20;;;;;;;8.00;5.20;;;;;;;;;;4983907;28;20183;-82
2022/05/09 01:58:46;;;;;;;5.65;4.78;;;;;;;;;;4995083;28;20205;-82
2022/05/09 02:01:12;;;;;;;7.78;4.90;;;;;;;;;;5003761;28;20192;-81
2022/05/09 02:03:39;;;;;;;7.68;4.50;;;;;;;;;;5003626;28;20171;-81
2022/05/09 02:06:05;;;;;;;6.85;5.60;;;;;;;;;;4988303;28;20670;-82
2022/05/09 02:08:31;;;;;;;9.40;5.80;;;;;;;;;;5002446;28;20259;-82
2022/05/09 02:10:57;;;;;;;6.43;4.50;;;;;;;;;;5001984;28;20215;-82
2022/05/09 02:13:23;;;;;;;8.13;6.20;;;;;;;;;;4988025;28;20648;-82
2022/05/09 02:15:49;;;;;;;6.10;4.43;;;;;;;;;;5004879;28;20415;-82
2022/05/09 02:18:15;;;;;;;6.70;4.75;;;;;;;;;;5003638;28;20465;-81
2022/05/09 02:20:41;;;;;;;8.18;4.97;;;;;;;;;;5002025;28;20218;-82
2022/05/09 02:23:07;;;;;;;7.43;5.35;;;;;;;;;;4986050;28;20186;-81
2022/05/09 02:25:34;;;;;;;6.35;4.55;;;;;;;;;;5002195;28;20592;-82
2022/05/09 02:28:00;;;;;;;5.18;4.68;;;;;;;;;;4986464;28;20194;-81
2022/05/09 02:30:27;;;;;;;4.82;4.07;;;;;;;;;;5005855;28;20209;-82
2022/05/09 02:32:53;;;;;;;6.65;4.50;;;;;;;;;;5001677;28;20555;-82
2022/05/09 02:35:20;;;;;;;7.78;5.15;;;;;;;;;;5001022;28;20183;-82
2022/05/09 02:37:47;;;;;;;4.85;4.00;;;;;;;;;;5000371;28;20191;-81
2022/05/09 02:40:13;;;;;;;6.45;4.30;;;;;;;;;;4987301;28;20191;-82
2022/05/09 02:42:39;;;;;;;4.60;3.93;;;;;;;;;;4987477;28;20175;-81
2022/05/09 02:45:06;;;;;;;6.32;4.30;;;;;;;;;;5003234;28;20418;-81
2022/05/09 02:47:32;;;;;;;7.05;4.07;;;;;;;;;;5002761;28;20183;-82
2022/05/09 02:49:58;;;;;;;8.93;4.65;;;;;;;;;;4985748;28;20213;-82
2022/05/09 02:52:24;;;;;;;7.63;4.60;;;;;;;;;;5001572;28;20272;-81
2022/05/09 02:54:50;;;;;;;6.72;4.68;;;;;;;;;;5003726;28;20904;-82
2022/05/09 02:57:16;;;;;;;5.63;3.92;;;;;;;;;;5003727;28;20254;-82
2022/05/09 02:59:42;;;;;;;7.43;4.57;;;;;;;;;;5000942;28;20269;-81
2022/05/09 03:02:09;;;;;;;4.30;3.95;;;;;;;;;;5001619;28;20437;-81
2022/05/09 03:04:41;;;;;;;7.43;4.25;;;;;;;;;;4985542;28;20265;-81
2022/05/09 03:07:12;;;;;;;6.07;4.10;;;;;;;;;;4988247;28;20179;-82
2022/05/09 03:09:39;;;;;;;7.30;4.63;;;;;;;;;;4986596;28;20175;-82
2022/05/09 03:12:05;;;;;;;4.63;4.00;;;;;;;;;;4986603;28;20707;-82
2022/05/09 03:14:31;;;;;;;7.45;4.82;;;;;;;;;;5000657;28;20179;-82
2022/05/09 03:16:57;;;;;;;8.65;4.60;;;;;;;;;;5000583;28;20195;-82
2022/05/09 03:19:27;;;;;;;5.60;4.45;;;;;;;;;;5000825;28;20259;-81
2022/05/09 03:21:53;;;;;;;8.68;5.07;;;;;;;;;;5002766;28;20648;-82
2022/05/09 03:24:19;;;;;;;6.28;5.43;;;;;;;;;;4987552;28;20179;-82
2022/05/09 03:26:46;;;;;;;6.93;4.38;;;;;;;;;;4987001;28;20222;-82
2022/05/09 03:29:12;;;;;;;6.70;4.38;;;;;;;;;;5000457;28;20191;-82
2022/05/09 03:31:38;;;;;;;8.85;5.00;;;;;;;;;;5000417;28;20203;-81
2022/05/09 03:34:04;;;;;;;7.00;4.47;;;;;;;;;;5001284;28;20183;-81
2022/05/09 03:36:31;;;;;;;7.28;4.10;;;;;;;;;;4986388;28;20171;-82
2022/05/09 03:38:57;;;;;;;8.32;5.60;;;;;;;;;;5000102;28;20218;-82
2022/05/09 03:41:23;;;;;;;5.40;4.90;;;;;;;;;;4983588;28;20206;-81
2022/05/09 03:43:49;;;;;;;5.78;4.30;;;;;;;;;;5000845;28;20195;-81
2022/05/09 03:46:15;;;;;;;7.85;4.05;;;;;;;;;;5000924;28;20191;-82
2022/05/09 03:48:41;;;;;;;5.15;4.28;;;;;;;;;;4984863;28;20175;-82
2022/05/09 03:51:07;;;;;;;12.32;4.93;;;;;;;;;;5001254;28;20261;-81
2022/05/09 03:53:33;;;;;;;6.32;4.72;;;;;;;;;;4983141;28;20189;-81
2022/05/09 03:56:00;;;;;;;5.50;4.15;;;;;;;;;;4986093;28;20193;-81
2022/05/09 03:58:26;;;;;;;6.60;4.95;;;;;;;;;;5000957;28;20176;-81
2022/05/09 04:00:53;;;;;;;7.65;4.90;;;;;;;;;;5002558;28;20616;-81
2022/05/09 04:03:19;;;;;;;5.57;5.07;;;;;;;;;;5002839;28;20178;-81
2022/05/09 04:05:45;;;;;;;4.53;3.88;;;;;;;;;;5000396;28;20244;-81
2022/05/09 04:08:12;;;;;;;5.95;4.10;;;;;;;;;;5002744;28;20229;-81
2022/05/09 04:10:42;;;;;;;5.50;4.22;;;;;;;;;;4986034;28;20231;-81
2022/05/09 04:13:08;;;;;;;4.50;4.15;;;;;;;;;;5000066;28;20687;-81
2022/05/09 04:18:21;;;;;;;4.75;4.22;;;;;;;;;;5002383;28;20277;-82
2022/05/09 04:20:48;;;;;;;6.20;4.40;;;;;;;;;;4985230;28;20263;-83
2022/05/09 04:23:14;;;;;;;10.90;4.40;;;;;;;;;;4985444;28;20190;-82
2022/05/09 04:25:40;;;;;;;6.10;4.07;;;;;;;;;;5000632;28;20230;-82
2022/05/09 04:28:07;;;;;;;5.30;3.35;;;;;;;;;;5002714;28;20206;-81
2022/05/09 04:30:35;;;;;;;6.30;4.82;;;;;;;;;;5008633;28;20203;-81
2022/05/09 04:33:01;;;;;;;8.48;4.90;;;;;;;;;;5006885;28;20270;-81
2022/05/09 04:35:28;;;;;;;4.90;4.38;;;;;;;;;;5002779;28;20673;-81
2022/05/09 04:37:54;;;;;;;8.57;4.50;;;;;;;;;;4987507;28;20183;-81
2022/05/09 04:40:22;;;;;;;4.80;4.28;;;;;;;;;;4987639;28;20578;-81
2022/05/09 04:42:47;;;;;;;5.95;3.95;;;;;;;;;;5006527;28;20190;-81
2022/05/09 04:45:14;;;;;;;6.90;4.13;;;;;;;;;;5005539;28;20179;-81
2022/05/09 04:47:40;;;;;;;7.40;4.25;;;;;;;;;;4988590;28;20460;-82
2022/05/09 04:50:07;;;;;;;7.25;4.68;;;;;;;;;;4985925;28;20206;-81
2022/05/09 04:52:33;;;;;;;8.18;4.30;;;;;;;;;;5003799;28;20188;-81
2022/05/09 04:54:59;;;;;;;5.03;4.53;;;;;;;;;;4987401;28;20199;-81
2022/05/09 04:57:25;;;;;;;10.50;5.63;;;;;;;;;;5006651;28;20418;-81
2022/05/09 04:59:51;;;;;;;7.57;4.00;;;;;;;;;;5003349;28;20448;-81
2022/05/09 05:02:17;;;;;;;8.03;4.80;;;;;;;;;;5005138;28;20434;-82
2022/05/09 05:04:43;;;;;;;5.77;4.17;;;;;;;;;;4987149;28;20453;-82
2022/05/09 05:07:09;;;;;;;4.50;3.65;;;;;;;;;;5003574;28;20515;-81
2022/05/09 05:09:35;;;;;;;5.80;4.30;;;;;;;;;;4989401;28;20178;-81
2022/05/09 05:12:02;;;;;;;5.75;4.18;;;;;;;;;;5000956;28;20195;-82
2022/05/09 05:14:28;;;;;;;11.40;7.82;;;;;;;;;;4990904;28;20188;-82
2022/05/09 05:16:59;;;;;;;6.47;5.10;;;;;;;;;;4993648;28;20274;-82
2022/05/09 05:19:26;;;;;;;7.03;4.25;;;;;;;;;;4985968;28;20321;-81
2022/05/09 05:21:52;;;;;;;7.05;4.82;;;;;;;;;;5005339;28;20183;-81
2022/05/09 05:24:18;;;;;;;6.95;4.30;;;;;;;;;;4989259;28;20655;-81
2022/05/09 05:26:44;;;;;;;11.23;5.30;;;;;;;;;;5003174;28;20202;-81
2022/05/09 05:29:10;;;;;;;5.40;4.28;;;;;;;;;;5002645;28;20187;-82
2022/05/09 05:31:36;;;;;;;11.45;4.50;;;;;;;;;;5002758;28;20202;-82
2022/05/09 05:34:02;;;;;;;6.75;4.25;;;;;;;;;;5002944;28;20199;-82
2022/05/09 05:36:28;;;;;;;9.95;5.20;;;;;;;;;;5006633;28;20206;-82
2022/05/09 05:38:54;;;;;;;8.05;4.32;;;;;;;;;;5002771;28;20179;-81
2022/05/09 05:41:21;;;;;;;8.57;5.57;;;;;;;;;;5003298;28;20198;-82
2022/05/09 05:43:47;;;;;;;5.72;5.00;;;;;;;;;;5002959;28;20286;-82
2022/05/09 05:46:13;;;;;;;11.80;5.30;;;;;;;;;;5002981;28;20183;-82
2022/05/09 05:48:40;;;;;;;8.40;5.50;;;;;;;;;;5005048;28;20233;-82
2022/05/09 05:51:06;;;;;;;19.05;5.70;;;;;;;;;;4987470;28;20473;-83
2022/05/09 05:53:32;;;;;;;8.30;5.53;;;;;;;;;;4988480;28;20187;-82
2022/05/09 05:55:58;;;;;;;8.77;5.68;;;;;;;;;;5003231;28;20585;-83
2022/05/09 05:58:26;;;;;;;9.18;5.50;;;;;;;;;;5002542;28;20179;-82
2022/05/09 06:00:52;;;;;;;32.45;7.38;;;;;;;;;;5003706;28;20246;-83
2022/05/09 06:03:20;;;;;;;12.82;6.13;;;;;;;;;;5004988;28;20210;-82
2022/05/09 06:05:46;;;;;;;12.07;6.70;;;;;;;;;;5002450;28;20209;-82
2022/05/09 06:08:12;;;;;;;10.18;6.30;;;;;;;;;;4988415;28;20194;-83
2022/05/09 06:10:38;;;;;;;12.48;6.40;;;;;;;;;;5002667;28;20382;-82
2022/05/09 06:13:05;;;;;;;12.93;5.55;;;;;;;;;;4986349;28;20358;-83
2022/05/09 06:15:36;;;;;;;10.30;6.55;;;;;;;;;;4988094;28;20289;-83
2022/05/09 06:18:07;;;;;;;11.48;6.22;;;;;;;;;;5005134;28;20565;-83
2022/05/09 06:20:34;;;;;;;13.10;6.65;;;;;;;;;;4987209;28;20184;-83
2022/05/09 06:23:00;;;;;;;10.65;6.53;;;;;;;;;;5002761;28;20525;-83
2022/05/09 06:25:27;;;;;;;11.02;5.47;;;;;;;;;;5002722;28;20197;-83
2022/05/09 06:27:54;;;;;;;12.02;5.50;;;;;;;;;;5004830;28;20179;-84
2022/05/09 06:30:21;;;;;;;7.95;6.03;;;;;;;;;;5004729;28;20199;-83
2022/05/09 06:32:47;;;;;;;7.72;5.45;;;;;;;;;;5002003;28;20183;-82
2022/05/09 06:35:15;;;;;;;10.80;6.53;;;;;;;;;;5001363;28;20218;-82
2022/05/09 06:37:41;;;;;;;12.60;6.57;;;;;;;;;;5002062;28;20179;-82
2022/05/09 06:40:09;;;;;;;11.27;5.70;;;;;;;;;;4990360;28;20187;-82
2022/05/09 06:42:35;;;;;;;11.73;6.15;;;;;;;;;;4988172;28;20179;-82
2022/05/09 06:45:01;;;;;;;13.60;7.20;;;;;;;;;;5001854;28;20194;-77
2022/05/09 06:47:27;;;;;;;9.68;5.53;;;;;;;;;;5001599;28;20202;-81
2022/05/09 06:49:53;;;;;;;7.53;5.45;;;;;;;;;;5000725;28;20198;-81
2022/05/09 06:52:19;;;;;;;7.20;5.80;;;;;;;;;;4985036;28;20195;-81
2022/05/09 06:54:45;;;;;;;9.30;5.68;;;;;;;;;;5004011;28;20542;-81
2022/05/09 06:57:11;;;;;;;10.77;7.07;;;;;;;;;;5003166;28;20175;-82
2022/05/09 06:59:37;;;;;;;8.50;6.03;;;;;;;;;;4983405;28;20198;-81
2022/05/09 07:02:03;;;;;;;7.93;5.70;;;;;;;;;;5001208;28;20186;-80
2022/05/09 07:04:29;;;;;;;7.32;5.18;;;;;;;;;;4982969;28;20460;-82
2022/05/09 07:06:57;;;;;;;15.20;6.63;;;;;;;;;;4985118;28;20335;-82
2022/05/09 07:09:23;;;;;;;8.13;5.55;;;;;;;;;;5003797;28;20419;-82
2022/05/09 07:11:51;;;;;;;9.40;5.10;;;;;;;;;;5001667;28;20674;-83
2022/05/09 07:14:17;;;;;;;10.50;5.65;;;;;;;;;;5002259;28;20448;-80
2022/05/09 07:16:43;;;;;;;7.10;4.40;;;;;;;;;;4984017;28;20233;-81
2022/05/09 07:19:09;;;;;;;15.77;7.60;;;;;;;;;;5001343;28;20978;-81
2022/05/09 07:21:35;;;;;;;9.67;5.30;;;;;;;;;;5004722;28;20517;-82
2022/05/09 07:24:01;;;;;;;9.73;5.95;;;;;;;;;;4983555;28;20517;-82
2022/05/09 07:26:27;;;;;;;10.23;5.30;;;;;;;;;;4985767;28;20188;-83
2022/05/09 07:28:53;;;;;;;11.18;6.65;;;;;;;;;;4986421;28;20197;-82
2022/05/09 07:31:19;;;;;;;9.90;5.27;;;;;;;;;;4984724;28;20212;-83
2022/05/09 07:33:45;;;;;;;7.32;5.55;;;;;;;;;;5002702;28;20833;-82
2022/05/09 07:36:11;;;;;;;13.48;5.15;;;;;;;;;;4986862;28;20170;-83
2022/05/09 07:38:37;;;;;;;8.88;5.70;;;;;;;;;;4986148;28;20213;-82
2022/05/09 07:41:03;;;;;;;9.20;5.07;;;;;;;;;;5002964;28;20190;-82
2022/05/09 07:43:30;;;;;;;11.10;5.35;;;;;;;;;;5000917;28;20185;-83
2022/05/09 07:45:56;;;;;;;13.27;5.43;;;;;;;;;;5003195;28;20199;-82
2022/05/09 07:48:24;;;;;;;11.93;6.20;;;;;;;;;;5003398;28;20205;-83
2022/05/09 07:50:50;;;;;;;9.80;5.55;;;;;;;;;;5000357;28;20237;-82
2022/05/09 07:53:21;;;;;;;14.60;6.10;;;;;;;;;;5000418;28;20197;-82
2022/05/09 07:55:47;;;;;;;11.95;5.85;;;;;;;;;;4980660;28;20198;-82
2022/05/09 07:58:13;;;;;;;9.40;6.40;;;;;;;;;;4983969;28;20187;-82
2022/05/09 08:00:40;;;;;;;7.20;5.60;;;;;;;;;;4985788;28;20554;-82
2022/05/09 08:03:07;;;;;;;10.77;7.63;;;;;;;;;;5001783;28;20265;-83
2022/05/09 08:05:33;;;;;;;12.00;5.07;;;;;;;;;;4999750;28;20194;-84
2022/05/09 08:07:59;;;;;;;6.20;5.00;;;;;;;;;;5000980;28;20183;-83
2022/05/09 08:10:25;;;;;;;14.07;5.95;;;;;;;;;;4995359;28;20203;-83
2022/05/09 08:12:52;;;;;;;10.32;5.30;;;;;;;;;;5002347;28;20175;-83
2022/05/09 08:15:19;;;;;;;7.65;4.85;;;;;;;;;;4986700;28;20277;-83
2022/05/09 08:17:47;;;;;;;7.55;5.22;;;;;;;;;;5000683;28;20213;-80
2022/05/09 08:20:15;;;;;;;10.27;5.75;;;;;;;;;;4985024;28;20198;-80
2022/05/09 08:22:41;;;;;;;9.23;5.50;;;;;;;;;;4985555;28;20197;-80
2022/05/09 08:25:07;;;;;;;6.93;5.65;;;;;;;;;;4984658;28;20190;-80
2022/05/09 08:27:33;;;;;;;10.65;5.63;;;;;;;;;;4989120;28;20243;-80
2022/05/09 08:29:59;;;;;;;8.25;4.70;;;;;;;;;;5000289;28;20690;-80
2022/05/09 08:32:26;;;;;;;7.73;4.90;;;;;;;;;;4985395;28;20178;-81
2022/05/09 08:34:52;;;;;;;7.85;5.18;;;;;;;;;;4996965;28;20442;-80
2022/05/09 08:37:19;;;;;;;5.28;4.78;;;;;;;;;;5000349;28;20653;-80
2022/05/09 08:39:45;;;;;;;8.10;5.40;;;;;;;;;;4984815;28;20648;-80
2022/05/09 08:42:13;;;;;;;7.95;5.50;;;;;;;;;;5001274;28;20633;-79
2022/05/09 08:44:58;;;;;;;7.25;4.60;;;;;;;;;;5000323;28;20590;-80
2022/05/09 08:47:24;;;;;;;5.78;5.18;;;;;;;;;;4985457;28;20226;-79
2022/05/09 08:49:53;;;;;;;7.57;4.30;;;;;;;;;;4984849;28;20668;-80
2022/05/09 08:52:19;;;;;;;7.07;4.88;;;;;;;;;;5000428;28;20523;-80
2022/05/09 08:54:45;;;;;;;7.43;4.97;;;;;;;;;;5001901;28;20207;-79
2022/05/09 08:57:14;;;;;;;7.88;4.95;;;;;;;;;;5001432;28;20418;-80
2022/05/09 08:59:46;;;;;;;8.15;4.47;;;;;;;;;;4999658;28;20644;-80
2022/05/09 09:02:20;;;;;;;11.15;4.95;;;;;;;;;;5000011;28;20262;-80
2022/05/09 09:04:52;;;;;;;6.03;5.10;;;;;;;;;;4999460;28;20187;-82
2022/05/09 09:07:34;;;;;;;7.38;4.70;;;;;;;;;;5000225;28;20229;-80
2022/05/09 09:10:08;;;;;;;10.15;5.53;;;;;;;;;;5000685;28;20200;-80
2022/05/09 09:12:38;;;;;;;7.72;5.00;;;;;;;;;;4999972;28;20673;-81
2022/05/09 09:15:07;;;;;;;9.52;5.55;;;;;;;;;;5004569;28;20234;-80
2022/05/09 09:17:56;;;;;;;13.80;5.35;;;;;;;;;;5003952;28;20176;-80
2022/05/09 09:20:41;;;;;;;10.40;5.28;;;;;;;;;;4988596;28;20214;-81
2022/05/09 09:23:25;;;;;;;9.45;6.35;;;;;;;;;;4988999;28;20203;-80
2022/05/09 09:26:00;;;;;;;14.52;5.45;;;;;;;;;;5002878;28;20295;-80
2022/05/09 09:28:38;;;;;;;7.57;5.15;;;;;;;;;;4988498;28;20196;-81
2022/05/09 09:31:10;;;;;;;9.02;5.18;;;;;;;;;;4984757;28;20353;-80
2022/05/09 09:33:38;;;;;;;7.57;6.25;;;;;;;;;;5002518;28;20192;-80
2022/05/09 09:36:07;;;;;;;10.68;5.00;;;;;;;;;;5004197;28;20206;-80
2022/05/09 09:38:41;;;;;;;9.23;4.88;;;;;;;;;;4987331;28;20192;-79
2022/05/09 09:41:17;;;;;;;9.13;5.68;;;;;;;;;;5002154;28;20186;-80
2022/05/09 09:43:43;;;;;;;8.13;5.70;;;;;;;;;;5005452;28;20254;-80
2022/05/09 09:46:09;;;;;;;6.60;5.53;;;;;;;;;;4985955;28;20417;-80
2022/05/09 09:48:35;;;;;;;8.80;6.47;;;;;;;;;;5005936;28;20431;-81
2022/05/09 09:51:06;;;;;;;6.30;5.30;;;;;;;;;;5004179;28;20459;-80
2022/05/09 09:53:41;;;;;;;5.30;4.60;;;;;;;;;;4984643;28;20420;-82
2022/05/09 09:56:27;;;;;;;5.60;5.00;;;;;;;;;;4987139;28;20482;-81
2022/05/09 09:58:58;;;;;;;6.43;5.47;;;;;;;;;;4984963;28;20447;-81
2022/05/09 10:01:26;;;;;;;5.57;5.07;;;;;;;;;;5002810;28;20446;-82
2022/05/09 10:04:09;;;;;;;6.60;6.00;;;;;;;;;;5003904;28;20405;-82
2022/05/09 10:06:36;;;;;;;6.80;5.73;;;;;;;;;;5005401;28;20401;-81
2022/05/09 10:09:06;;;;;;;8.30;6.20;;;;;;;;;;5002608;28;20831;-81
2022/05/09 10:11:33;;;;;;;7.10;6.00;;;;;;;;;;5002473;28;20433;-81
2022/05/09 10:14:00;;;;;;;7.60;5.50;;;;;;;;;;5002643;28;20804;-81
2022/05/09 10:16:48;;;;;;;7.80;5.73;;;;;;;;;;5003216;28;21338;-81
2022/05/09 10:19:29;;;;;;;7.10;4.80;;;;;;;;;;4995488;28;20480;-80
2022/05/09 10:24:57;;;;;;;9.93;4.20;;;;;;;;;;5000714;28;20420;-81
2022/05/09 10:27:23;;;;;;;7.20;5.27;;;;;;;;;;5004434;28;20447;-81
2022/05/09 10:29:51;;;;;;;4.90;4.40;;;;;;;;;;5001987;28;20857;-81
2022/05/09 10:32:24;;;;;;;7.23;4.27;;;;;;;;;;4984300;28;20442;-81
2022/05/09 10:35:12;;;;;;;5.63;4.20;;;;;;;;;;5001328;28;20434;-81
2022/05/09 10:38:02;;;;;;;4.27;3.73;;;;;;;;;;5001842;28;20435;-80
2022/05/09 10:40:31;;;;;;;4.90;4.20;;;;;;;;;;4982171;28;20450;-81
2022/05/09 10:43:05;;;;;;;5.30;4.63;;;;;;;;;;5003135;28;20453;-81
2022/05/09 10:45:33;;;;;;;3.90;3.60;;;;;;;;;;5005424;28;20484;-81
2022/05/09 10:48:02;;;;;;;4.70;4.30;;;;;;;;;;5001896;28;20448;-81
2022/05/09 10:50:31;;;;;;;5.00;4.10;;;;;;;;;;4984347;28;20494;-81
2022/05/09 10:52:59;;;;;;;5.87;3.60;;;;;;;;;;5001531;28;20442;-81
2022/05/09 10:55:28;;;;;;;6.17;4.80;;;;;;;;;;5001953;28;20440;-81
2022/05/09 10:58:13;;;;;;;5.67;5.17;;;;;;;;;;5003527;28;20392;-82
2022/05/09 11:00:42;;;;;;;4.30;3.90;;;;;;;;;;4983605;28;20397;-81
2022/05/09 11:03:34;;;;;;;4.93;3.87;;;;;;;;;;4986855;28;20523;-82
2022/05/09 11:06:03;;;;;;;6.90;5.10;;;;;;;;;;5001534;28;20450;-82
2022/05/09 11:08:58;;;;;;;7.83;5.07;;;;;;;;;;5002529;28;20448;-80
2022/05/09 11:11:27;;;;;;;6.47;4.70;;;;;;;;;;4983286;28;21037;-80
2022/05/09 11:14:12;;;;;;;9.60;5.45;;;;;;;;;;5002679;28;20512;-82
2022/05/09 11:16:51;;;;;;;5.10;4.70;;;;;;;;;;4984774;28;20258;-89
2022/05/09 11:19:30;;;;;;;7.33;5.40;;;;;;;;;;4984844;28;20462;-83
2022/05/09 11:22:11;;;;;;;9.07;5.40;;;;;;;;;;4984091;28;20448;-80
2022/05/09 11:25:01;;;;;;;9.43;5.17;;;;;;;;;;4983674;28;20476;-81
2022/05/09 11:27:36;;;;;;;6.23;5.00;;;;;;;;;;5004289;28;20385;-81
2022/05/09 11:30:08;;;;;;;4.70;4.20;;;;;;;;;;4996952;28;20434;-80
2022/05/09 11:32:37;;;;;;;4.90;4.43;;;;;;;;;;5000510;28;20496;-81
2022/05/09 11:35:12;;;;;;;5.20;4.70;;;;;;;;;;4999143;28;20771;-81
2022/05/09 11:37:38;;;;;;;5.10;4.30;;;;;;;;;;4999949;28;20838;-80
2022/05/09 11:40:07;;;;;;;5.10;4.60;;;;;;;;;;4983655;28;20457;-82
2022/05/09 11:45:37;;;;;;;6.10;4.73;;;;;;;;;;5002600;28;20922;-82
2022/05/09 11:48:12;;;;;;;7.40;5.33;;;;;;;;;;4996485;28;20426;-83
2022/05/09 11:50:47;;;;;;;7.87;4.80;;;;;;;;;;4994911;28;20731;-84
2022/05/09 11:53:15;;;;;;;5.60;4.00;;;;;;;;;;4994274;28;20473;-82
2022/05/09 11:55:41;;;;;;;5.13;4.27;;;;;;;;;;4991335;28;20491;-80
2022/05/09 11:58:08;;;;;;;7.77;4.80;;;;;;;;;;4998832;28;20947;-82
2022/05/09 12:00:34;;;;;;;6.73;4.47;;;;;;;;;;4986155;28;20433;-88
2022/05/09 12:03:00;;;;;;;6.70;4.70;;;;;;;;;;4982476;28;20414;-81
2022/05/09 12:05:26;;;;;;;5.90;5.07;;;;;;;;;;4981067;28;20614;-82
2022/05/09 12:08:11;;;;;;;7.27;4.60;;;;;;;;;;5001150;28;20601;-82
2022/05/09 12:10:38;;;;;;;4.77;4.20;;;;;;;;;;5000695;28;20441;-81
2022/05/09 12:13:05;;;;;;;4.47;4.07;;;;;;;;;;4972233;28;20434;-84
2022/05/09 12:15:37;;;;;;;4.53;3.70;;;;;;;;;;5003741;28;20822;-80
2022/05/09 12:18:06;;;;;;;4.00;3.60;;;;;;;;;;5000571;28;20945;-81
2022/05/09 12:20:38;;;;;;;5.13;4.37;;;;;;;;;;4985514;28;20443;-82
2022/05/09 12:23:05;;;;;;;4.20;3.90;;;;;;;;;;4982144;28;20472;-81
2022/05/09 12:25:39;;;;;;;6.80;4.27;;;;;;;;;;5000802;28;20453;-84
2022/05/09 12:28:05;;;;;;;4.83;4.43;;;;;;;;;;4985425;28;20433;-82
2022/05/09 12:30:43;;;;;;;4.60;4.20;;;;;;;;;;4999196;28;20565;-81
2022/05/09 12:33:15;;;;;;;5.10;4.57;;;;;;;;;;4985324;28;20505;-86
2022/05/09 12:35:42;;;;;;;4.73;4.30;;;;;;;;;;4984990;28;20444;-84
2022/05/09 12:38:12;;;;;;;4.97;4.03;;;;;;;;;;4983114;28;20437;-82
2022/05/09 12:40:38;;;;;;;4.27;3.97;;;;;;;;;;4984702;28;20510;-81
2022/05/09 12:43:05;;;;;;;3.47;3.17;;;;;;;;;;4983383;28;20457;-80
2022/05/09 12:45:32;;;;;;;4.80;4.33;;;;;;;;;;5003490;28;20426;-84
2022/05/09 12:47:58;;;;;;;7.50;4.63;;;;;;;;;;5000189;28;20946;-82
2022/05/09 12:50:29;;;;;;;5.10;3.77;;;;;;;;;;4986812;28;20477;-82
2022/05/09 12:52:57;;;;;;;5.50;4.10;;;;;;;;;;4995740;28;20514;-82
2022/05/09 12:58:36;;;;;;;4.70;4.00;;;;;;;;;;5004892;28;20994;-79
2022/05/09 13:01:14;;;;;;;4.17;3.77;;;;;;;;;;4987671;28;20437;-80
2022/05/09 13:03:54;;;;;;;5.17;4.67;;;;;;;;;;5005879;28;20416;-79
2022/05/09 13:06:22;;;;;;;4.93;4.10;;;;;;;;;;4988620;28;20497;-82
2022/05/09 13:08:52;;;;;;;7.27;5.07;;;;;;;;;;5003202;28;20449;-77
2022/05/09 13:11:26;;;;;;;7.30;5.07;;;;;;;;;;4985622;28;20471;-82
2022/05/09 13:13:59;;;;;;;4.73;4.33;;;;;;;;;;4988528;28;20445;-80
2022/05/09 13:16:29;;;;;;;5.33;3.67;;;;;;;;;;5004277;28;20446;-80
2022/05/09 13:18:56;;;;;;;4.67;4.20;;;;;;;;;;4987307;28;20465;-80
2022/05/09 13:21:24;;;;;;;6.57;5.10;;;;;;;;;;5005999;28;20440;-80
2022/05/09 13:23:51;;;;;;;5.00;4.47;;;;;;;;;;4988904;28;20433;-81
2022/05/09 13:26:18;;;;;;;5.30;4.20;;;;;;;;;;4985894;28;20481;-83
2022/05/09 13:28:55;;;;;;;3.97;3.77;;;;;;;;;;5003398;28;20435;-81
2022/05/09 13:31:29;;;;;;;3.97;3.67;;;;;;;;;;4986889;28;20469;-80
2022/05/09 13:33:55;;;;;;;4.80;4.40;;;;;;;;;;4986182;28;20602;-81
2022/05/09 13:36:25;;;;;;;4.53;4.13;;;;;;;;;;5005610;28;20426;-80
2022/05/09 13:38:52;;;;;;;4.70;4.30;;;;;;;;;;5003487;28;20435;-82
2022/05/09 13:41:24;;;;;;;5.10;4.13;;;;;;;;;;5003770;28;20434;-81
2022/05/09 13:43:50;;;;;;;5.07;4.67;;;;;;;;;;5002765;28;20468;-81
2022/05/09 13:46:21;;;;;;;4.93;4.50;;;;;;;;;;5002839;28;20443;-81
2022/05/09 13:48:52;;;;;;;4.63;4.00;;;;;;;;;;5005649;28;20440;-80
2022/05/09 13:51:32;;;;;;;4.10;3.70;;;;;;;;;;5004241;28;21037;-82
2022/05/09 13:54:00;;;;;;;5.63;4.00;;;;;;;;;;4985875;28;20442;-84
2022/05/09 13:56:27;;;;;;;7.20;4.37;;;;;;;;;;5000613;28;20517;-83
2022/05/09 13:59:01;;;;;;;3.90;3.70;;;;;;;;;;5002944;28;20408;-81
2022/05/09 14:01:32;;;;;;;4.90;4.40;;;;;;;;;;4995297;28;20444;-83
2022/05/09 14:03:58;;;;;;;4.83;4.20;;;;;;;;;;5002941;28;20437;-80
2022/05/09 14:06:29;;;;;;;4.63;4.23;;;;;;;;;;5002039;28;20435;-82
2022/05/09 14:08:56;;;;;;;3.87;3.47;;;;;;;;;;5002022;28;20438;-81
2022/05/09 14:11:37;;;;;;;3.77;3.47;;;;;;;;;;5000544;28;20491;-84
2022/05/09 14:14:04;;;;;;;3.47;3.17;;;;;;;;;;5001482;28;20444;-83
2022/05/09 14:16:34;;;;;;;3.57;3.33;;;;;;;;;;4987391;28;20438;-81
2022/05/09 14:19:18;;;;;;;3.53;3.20;;;;;;;;;;5004704;28;20508;-81
2022/05/09 14:21:46;;;;;;;4.40;3.93;;;;;;;;;;5001922;28;20430;-79
2022/05/09 14:24:14;;;;;;;3.10;2.87;;;;;;;;;;4987560;28;20458;-80
2022/05/09 14:29:37;;;;;;;6.70;4.03;;;;;;;;;;4922667;29;20507;-80
2022/05/09 14:32:10;;;;;;;5.80;4.00;;;;;;;;;;4906722;29;20541;-81
2022/05/09 14:34:38;;;;;;;4.13;3.70;;;;;;;;;;4922243;29;20519;-81
2022/05/09 14:37:27;;;;;;;3.60;3.33;;;;;;;;;;4908992;29;20879;-80
2022/05/09 14:39:58;;;;;;;4.20;3.90;;;;;;;;;;4854069;29;20468;-82
2022/05/09 14:42:25;;;;;;;3.97;3.60;;;;;;;;;;4853282;29;20439;-85
2022/05/09 14:44:53;;;;;;;4.37;4.07;;;;;;;;;;4855776;29;20453;-79
2022/05/09 14:47:25;;;;;;;5.07;3.73;;;;;;;;;;4864836;29;20543;-80
2022/05/09 14:49:53;;;;;;;3.87;3.60;;;;;;;;;;4872308;29;20553;-79
2022/05/09 14:52:22;;;;;;;4.83;4.30;;;;;;;;;;4867655;29;20648;-79
2022/05/09 14:57:50;;;;;;;3.83;3.40;;;;;;;;;;4861340;29;20542;-80
2022/05/09 15:00:19;;;;;;;4.17;3.77;;;;;;;;;;4880998;29;20484;-82
2022/05/09 15:02:55;;;;;;;5.10;3.50;;;;;;;;;;4871999;29;20479;-82
2022/05/09 15:05:21;;;;;;;3.57;3.27;;;;;;;;;;4869857;29;20555;-82
2022/05/09 15:07:47;;;;;;;4.17;3.70;;;;;;;;;;4927591;29;20472;-80
2022/05/09 15:10:13;;;;;;;4.30;4.00;;;;;;;;;;4943617;29;20452;-79
2022/05/09 15:12:40;;;;;;;4.03;3.40;;;;;;;;;;4943351;29;20417;-83